sensor_id;sensor_type;location;lat;lon;timestamp;P1;durP1;ratioP1;P2;durP2;ratioP2
16954;SDS011;8594;52.052;8.354;2024-03-17T00:02:24;9.00;;;4.13;;
16954;SDS011;8594;52.052;8.354;2024-03-17T00:04:50;11.13;;;4.13;;
16954;SDS011;8594;52.052;8.354;2024-03-17T00:07:19;10.30;;;4.20;;
16954;SDS011;8594;52.052;8.354;2024-03-17T00:09:45;7.70;;;4.13;;
16954;SDS011;8594;52.052;8.354;2024-03-17T00:12:12;9.80;;;4.17;;
16954;SDS011;8594;52.052;8.354;2024-03-17T00:14:38;7.67;;;3.73;;
16954;SDS011;8594;52.052;8.354;2024-03-17T00:17:05;13.33;;;3.97;;
16954;SDS011;8594;52.052;8.354;2024-03-17T00:19:31;13.03;;;4.40;;
16954;SDS011;8594;52.052;8.354;2024-03-17T00:21:57;11.00;;;4.13;;
16954;SDS011;8594;52.052;8.354;2024-03-17T00:24:26;10.17;;;4.07;;
16954;SDS011;8594;52.052;8.354;2024-03-17T00:26:59;13.90;;;3.83;;
16954;SDS011;8594;52.052;8.354;2024-03-17T00:29:26;7.40;;;3.50;;
16954;SDS011;8594;52.052;8.354;2024-03-17T00:31:53;6.20;;;3.47;;
16954;SDS011;8594;52.052;8.354;2024-03-17T00:34:20;12.20;;;3.87;;
16954;SDS011;8594;52.052;8.354;2024-03-17T00:36:45;10.63;;;3.93;;
16954;SDS011;8594;52.052;8.354;2024-03-17T00:39:12;10.17;;;3.90;;
16954;SDS011;8594;52.052;8.354;2024-03-17T00:41:40;14.23;;;4.13;;
16954;SDS011;8594;52.052;8.354;2024-03-17T00:44:07;10.63;;;4.00;;
16954;SDS011;8594;52.052;8.354;2024-03-17T00:46:33;12.93;;;3.87;;
16954;SDS011;8594;52.052;8.354;2024-03-17T00:48:59;13.07;;;4.37;;
16954;SDS011;8594;52.052;8.354;2024-03-17T00:51:25;12.23;;;3.60;;
16954;SDS011;8594;52.052;8.354;2024-03-17T00:53:52;9.63;;;3.77;;
16954;SDS011;8594;52.052;8.354;2024-03-17T00:56:18;10.40;;;3.80;;
16954;SDS011;8594;52.052;8.354;2024-03-17T00:58:46;8.00;;;3.53;;
16954;SDS011;8594;52.052;8.354;2024-03-17T01:01:12;7.57;;;3.63;;
16954;SDS011;8594;52.052;8.354;2024-03-17T01:03:39;8.33;;;3.60;;
16954;SDS011;8594;52.052;8.354;2024-03-17T01:06:05;7.03;;;3.20;;
16954;SDS011;8594;52.052;8.354;2024-03-17T01:08:32;6.33;;;3.33;;
16954;SDS011;8594;52.052;8.354;2024-03-17T01:10:58;10.63;;;4.00;;
16954;SDS011;8594;52.052;8.354;2024-03-17T01:13:24;9.67;;;3.80;;
16954;SDS011;8594;52.052;8.354;2024-03-17T01:15:52;8.47;;;4.50;;
16954;SDS011;8594;52.052;8.354;2024-03-17T01:18:19;11.10;;;3.73;;
16954;SDS011;8594;52.052;8.354;2024-03-17T01:20:45;10.87;;;3.70;;
16954;SDS011;8594;52.052;8.354;2024-03-17T01:23:12;10.73;;;3.90;;
16954;SDS011;8594;52.052;8.354;2024-03-17T01:25:38;8.37;;;3.70;;
16954;SDS011;8594;52.052;8.354;2024-03-17T01:28:05;8.93;;;3.60;;
16954;SDS011;8594;52.052;8.354;2024-03-17T01:30:31;8.60;;;3.63;;
16954;SDS011;8594;52.052;8.354;2024-03-17T01:33:00;10.63;;;3.87;;
16954;SDS011;8594;52.052;8.354;2024-03-17T01:35:26;10.63;;;3.53;;
16954;SDS011;8594;52.052;8.354;2024-03-17T01:37:53;10.27;;;4.07;;
16954;SDS011;8594;52.052;8.354;2024-03-17T01:40:19;15.27;;;4.27;;
16954;SDS011;8594;52.052;8.354;2024-03-17T01:42:46;10.57;;;4.17;;
16954;SDS011;8594;52.052;8.354;2024-03-17T01:45:26;9.57;;;3.40;;
16954;SDS011;8594;52.052;8.354;2024-03-17T01:47:53;9.40;;;3.53;;
16954;SDS011;8594;52.052;8.354;2024-03-17T01:50:24;10.77;;;4.07;;
16954;SDS011;8594;52.052;8.354;2024-03-17T01:52:53;9.27;;;3.87;;
16954;SDS011;8594;52.052;8.354;2024-03-17T01:55:24;10.57;;;3.77;;
16954;SDS011;8594;52.052;8.354;2024-03-17T01:57:52;10.50;;;3.80;;
16954;SDS011;8594;52.052;8.354;2024-03-17T02:00:19;8.97;;;3.50;;
16954;SDS011;8594;52.052;8.354;2024-03-17T02:02:46;8.53;;;3.73;;
16954;SDS011;8594;52.052;8.354;2024-03-17T02:05:13;9.70;;;3.30;;
16954;SDS011;8594;52.052;8.354;2024-03-17T02:07:40;10.53;;;4.50;;
16954;SDS011;8594;52.052;8.354;2024-03-17T02:10:07;8.47;;;3.80;;
16954;SDS011;8594;52.052;8.354;2024-03-17T02:12:34;13.63;;;3.93;;
16954;SDS011;8594;52.052;8.354;2024-03-17T02:15:01;10.30;;;3.90;;
16954;SDS011;8594;52.052;8.354;2024-03-17T02:17:30;11.00;;;4.53;;
16954;SDS011;8594;52.052;8.354;2024-03-17T02:19:57;8.27;;;3.37;;
16954;SDS011;8594;52.052;8.354;2024-03-17T02:22:25;8.70;;;4.50;;
16954;SDS011;8594;52.052;8.354;2024-03-17T02:24:52;11.57;;;4.23;;
16954;SDS011;8594;52.052;8.354;2024-03-17T02:27:19;9.50;;;3.60;;
16954;SDS011;8594;52.052;8.354;2024-03-17T02:29:45;15.47;;;4.23;;
16954;SDS011;8594;52.052;8.354;2024-03-17T02:32:12;12.70;;;3.80;;
16954;SDS011;8594;52.052;8.354;2024-03-17T02:34:38;9.33;;;4.10;;
16954;SDS011;8594;52.052;8.354;2024-03-17T02:37:06;9.67;;;4.10;;
16954;SDS011;8594;52.052;8.354;2024-03-17T02:39:33;7.93;;;4.00;;
16954;SDS011;8594;52.052;8.354;2024-03-17T02:42:01;11.47;;;3.97;;
16954;SDS011;8594;52.052;8.354;2024-03-17T02:44:29;14.97;;;4.47;;
16954;SDS011;8594;52.052;8.354;2024-03-17T02:46:56;6.70;;;3.87;;
16954;SDS011;8594;52.052;8.354;2024-03-17T02:49:23;12.50;;;3.70;;
16954;SDS011;8594;52.052;8.354;2024-03-17T02:51:51;9.53;;;4.00;;
16954;SDS011;8594;52.052;8.354;2024-03-17T02:54:19;12.60;;;3.70;;
16954;SDS011;8594;52.052;8.354;2024-03-17T02:56:47;8.70;;;3.87;;
16954;SDS011;8594;52.052;8.354;2024-03-17T02:59:14;11.13;;;3.87;;
16954;SDS011;8594;52.052;8.354;2024-03-17T03:01:40;11.33;;;3.70;;
16954;SDS011;8594;52.052;8.354;2024-03-17T03:04:07;7.27;;;3.30;;
16954;SDS011;8594;52.052;8.354;2024-03-17T03:06:34;12.50;;;4.30;;
16954;SDS011;8594;52.052;8.354;2024-03-17T03:09:01;12.27;;;3.97;;
16954;SDS011;8594;52.052;8.354;2024-03-17T03:11:30;15.93;;;4.20;;
16954;SDS011;8594;52.052;8.354;2024-03-17T03:13:58;12.90;;;4.43;;
16954;SDS011;8594;52.052;8.354;2024-03-17T03:16:25;8.30;;;4.13;;
16954;SDS011;8594;52.052;8.354;2024-03-17T03:18:51;10.73;;;3.80;;
16954;SDS011;8594;52.052;8.354;2024-03-17T03:21:19;11.90;;;4.17;;
16954;SDS011;8594;52.052;8.354;2024-03-17T03:23:46;11.20;;;3.77;;
16954;SDS011;8594;52.052;8.354;2024-03-17T03:26:13;8.97;;;4.17;;
16954;SDS011;8594;52.052;8.354;2024-03-17T03:28:40;12.27;;;3.97;;
16954;SDS011;8594;52.052;8.354;2024-03-17T03:31:11;11.07;;;4.43;;
16954;SDS011;8594;52.052;8.354;2024-03-17T03:33:39;8.00;;;3.60;;
16954;SDS011;8594;52.052;8.354;2024-03-17T03:36:07;15.13;;;4.83;;
16954;SDS011;8594;52.052;8.354;2024-03-17T03:38:35;11.13;;;3.77;;
16954;SDS011;8594;52.052;8.354;2024-03-17T03:41:06;14.90;;;3.97;;
16954;SDS011;8594;52.052;8.354;2024-03-17T03:43:34;11.00;;;3.83;;
16954;SDS011;8594;52.052;8.354;2024-03-17T03:46:01;6.63;;;3.50;;
16954;SDS011;8594;52.052;8.354;2024-03-17T03:48:30;6.97;;;3.80;;
16954;SDS011;8594;52.052;8.354;2024-03-17T03:50:59;9.97;;;3.80;;
16954;SDS011;8594;52.052;8.354;2024-03-17T03:53:29;6.27;;;3.10;;
16954;SDS011;8594;52.052;8.354;2024-03-17T03:55:56;14.40;;;3.50;;
16954;SDS011;8594;52.052;8.354;2024-03-17T03:58:24;11.23;;;3.23;;
16954;SDS011;8594;52.052;8.354;2024-03-17T04:00:50;6.70;;;3.13;;
16954;SDS011;8594;52.052;8.354;2024-03-17T04:03:17;7.23;;;3.50;;
16954;SDS011;8594;52.052;8.354;2024-03-17T04:05:45;7.23;;;3.40;;
16954;SDS011;8594;52.052;8.354;2024-03-17T04:08:12;9.33;;;3.77;;
16954;SDS011;8594;52.052;8.354;2024-03-17T04:10:39;9.07;;;3.60;;
16954;SDS011;8594;52.052;8.354;2024-03-17T04:13:05;12.57;;;3.93;;
16954;SDS011;8594;52.052;8.354;2024-03-17T04:15:32;17.13;;;3.83;;
16954;SDS011;8594;52.052;8.354;2024-03-17T04:17:59;11.43;;;4.63;;
16954;SDS011;8594;52.052;8.354;2024-03-17T04:20:26;15.73;;;4.03;;
16954;SDS011;8594;52.052;8.354;2024-03-17T04:22:54;10.50;;;3.90;;
16954;SDS011;8594;52.052;8.354;2024-03-17T04:25:21;7.27;;;3.63;;
16954;SDS011;8594;52.052;8.354;2024-03-17T04:27:48;11.77;;;3.80;;
16954;SDS011;8594;52.052;8.354;2024-03-17T04:30:15;12.33;;;3.63;;
16954;SDS011;8594;52.052;8.354;2024-03-17T04:32:42;6.27;;;3.73;;
16954;SDS011;8594;52.052;8.354;2024-03-17T04:35:09;9.17;;;3.40;;
16954;SDS011;8594;52.052;8.354;2024-03-17T04:37:35;12.93;;;4.00;;
16954;SDS011;8594;52.052;8.354;2024-03-17T04:40:06;9.13;;;3.77;;
16954;SDS011;8594;52.052;8.354;2024-03-17T04:42:36;13.80;;;3.70;;
16954;SDS011;8594;52.052;8.354;2024-03-17T04:45:05;12.30;;;3.60;;
16954;SDS011;8594;52.052;8.354;2024-03-17T04:47:34;8.17;;;3.40;;
16954;SDS011;8594;52.052;8.354;2024-03-17T04:50:02;9.50;;;3.50;;
16954;SDS011;8594;52.052;8.354;2024-03-17T04:52:30;11.13;;;3.57;;
16954;SDS011;8594;52.052;8.354;2024-03-17T04:54:56;8.43;;;3.90;;
16954;SDS011;8594;52.052;8.354;2024-03-17T04:57:25;9.23;;;3.63;;
16954;SDS011;8594;52.052;8.354;2024-03-17T04:59:52;6.90;;;3.87;;
16954;SDS011;8594;52.052;8.354;2024-03-17T05:02:18;8.60;;;3.70;;
16954;SDS011;8594;52.052;8.354;2024-03-17T05:04:45;9.17;;;3.90;;
16954;SDS011;8594;52.052;8.354;2024-03-17T05:07:12;17.33;;;3.80;;
16954;SDS011;8594;52.052;8.354;2024-03-17T05:09:39;8.77;;;3.60;;
16954;SDS011;8594;52.052;8.354;2024-03-17T05:12:06;12.57;;;3.60;;
16954;SDS011;8594;52.052;8.354;2024-03-17T05:14:34;14.47;;;3.97;;
16954;SDS011;8594;52.052;8.354;2024-03-17T05:17:01;9.80;;;4.17;;
16954;SDS011;8594;52.052;8.354;2024-03-17T05:19:28;20.60;;;4.80;;
16954;SDS011;8594;52.052;8.354;2024-03-17T05:21:55;15.07;;;4.83;;
16954;SDS011;8594;52.052;8.354;2024-03-17T05:24:22;16.67;;;4.70;;
16954;SDS011;8594;52.052;8.354;2024-03-17T05:26:48;12.37;;;4.70;;
16954;SDS011;8594;52.052;8.354;2024-03-17T05:29:15;12.00;;;5.00;;
16954;SDS011;8594;52.052;8.354;2024-03-17T05:31:43;10.33;;;4.30;;
16954;SDS011;8594;52.052;8.354;2024-03-17T05:34:10;9.67;;;3.97;;
16954;SDS011;8594;52.052;8.354;2024-03-17T05:36:37;10.30;;;3.87;;
16954;SDS011;8594;52.052;8.354;2024-03-17T05:39:04;14.30;;;4.90;;
16954;SDS011;8594;52.052;8.354;2024-03-17T05:41:30;18.57;;;5.27;;
16954;SDS011;8594;52.052;8.354;2024-03-17T05:43:57;15.63;;;5.00;;
16954;SDS011;8594;52.052;8.354;2024-03-17T05:46:24;18.37;;;5.73;;
16954;SDS011;8594;52.052;8.354;2024-03-17T05:48:53;13.03;;;5.80;;
16954;SDS011;8594;52.052;8.354;2024-03-17T05:51:20;12.80;;;5.67;;
16954;SDS011;8594;52.052;8.354;2024-03-17T05:53:50;16.77;;;5.73;;
16954;SDS011;8594;52.052;8.354;2024-03-17T05:56:17;14.73;;;6.00;;
16954;SDS011;8594;52.052;8.354;2024-03-17T05:58:44;13.87;;;6.50;;
16954;SDS011;8594;52.052;8.354;2024-03-17T06:01:12;14.53;;;6.63;;
16954;SDS011;8594;52.052;8.354;2024-03-17T06:03:38;15.60;;;6.73;;
16954;SDS011;8594;52.052;8.354;2024-03-17T06:06:08;19.43;;;6.90;;
16954;SDS011;8594;52.052;8.354;2024-03-17T06:08:36;11.87;;;6.57;;
16954;SDS011;8594;52.052;8.354;2024-03-17T06:11:03;12.67;;;6.97;;
16954;SDS011;8594;52.052;8.354;2024-03-17T06:13:31;15.77;;;6.47;;
16954;SDS011;8594;52.052;8.354;2024-03-17T06:15:58;13.33;;;6.40;;
16954;SDS011;8594;52.052;8.354;2024-03-17T06:18:26;24.43;;;6.77;;
16954;SDS011;8594;52.052;8.354;2024-03-17T06:20:54;18.23;;;7.40;;
16954;SDS011;8594;52.052;8.354;2024-03-17T06:23:24;17.50;;;7.47;;
16954;SDS011;8594;52.052;8.354;2024-03-17T06:25:53;16.37;;;6.90;;
16954;SDS011;8594;52.052;8.354;2024-03-17T06:28:21;14.13;;;7.27;;
16954;SDS011;8594;52.052;8.354;2024-03-17T06:30:55;15.90;;;6.40;;
16954;SDS011;8594;52.052;8.354;2024-03-17T06:33:24;21.53;;;7.83;;
16954;SDS011;8594;52.052;8.354;2024-03-17T06:35:53;17.37;;;7.37;;
16954;SDS011;8594;52.052;8.354;2024-03-17T06:38:20;12.33;;;6.70;;
16954;SDS011;8594;52.052;8.354;2024-03-17T06:40:51;14.50;;;6.93;;
16954;SDS011;8594;52.052;8.354;2024-03-17T06:43:18;24.23;;;7.70;;
16954;SDS011;8594;52.052;8.354;2024-03-17T06:45:55;17.10;;;7.70;;
16954;SDS011;8594;52.052;8.354;2024-03-17T06:48:24;13.67;;;7.03;;
16954;SDS011;8594;52.052;8.354;2024-03-17T06:50:52;15.37;;;7.30;;
16954;SDS011;8594;52.052;8.354;2024-03-17T06:53:20;18.37;;;7.90;;
16954;SDS011;8594;52.052;8.354;2024-03-17T06:55:53;23.37;;;7.60;;
16954;SDS011;8594;52.052;8.354;2024-03-17T06:58:20;18.20;;;7.17;;
16954;SDS011;8594;52.052;8.354;2024-03-17T07:00:51;16.67;;;6.77;;
16954;SDS011;8594;52.052;8.354;2024-03-17T07:03:20;17.43;;;7.43;;
16954;SDS011;8594;52.052;8.354;2024-03-17T07:05:52;13.83;;;7.53;;
16954;SDS011;8594;52.052;8.354;2024-03-17T07:08:20;14.07;;;6.70;;
16954;SDS011;8594;52.052;8.354;2024-03-17T07:10:56;33.40;;;13.87;;
16954;SDS011;8594;52.052;8.354;2024-03-17T07:13:24;18.43;;;7.27;;
16954;SDS011;8594;52.052;8.354;2024-03-17T07:15:51;16.70;;;7.37;;
16954;SDS011;8594;52.052;8.354;2024-03-17T07:18:18;14.53;;;6.80;;
16954;SDS011;8594;52.052;8.354;2024-03-17T07:20:44;16.37;;;6.77;;
16954;SDS011;8594;52.052;8.354;2024-03-17T07:23:12;14.33;;;6.70;;
16954;SDS011;8594;52.052;8.354;2024-03-17T07:25:40;13.40;;;6.63;;
16954;SDS011;8594;52.052;8.354;2024-03-17T07:28:08;15.77;;;6.97;;
16954;SDS011;8594;52.052;8.354;2024-03-17T07:30:35;13.40;;;6.60;;
16954;SDS011;8594;52.052;8.354;2024-03-17T07:33:02;14.77;;;6.53;;
16954;SDS011;8594;52.052;8.354;2024-03-17T07:35:29;11.60;;;5.83;;
16954;SDS011;8594;52.052;8.354;2024-03-17T07:37:56;14.07;;;7.03;;
16954;SDS011;8594;52.052;8.354;2024-03-17T07:40:22;16.13;;;6.77;;
16954;SDS011;8594;52.052;8.354;2024-03-17T07:42:49;10.93;;;6.17;;
16954;SDS011;8594;52.052;8.354;2024-03-17T07:45:17;12.10;;;6.47;;
16954;SDS011;8594;52.052;8.354;2024-03-17T07:47:44;14.23;;;6.63;;
16954;SDS011;8594;52.052;8.354;2024-03-17T07:50:11;14.57;;;7.03;;
16954;SDS011;8594;52.052;8.354;2024-03-17T07:52:37;14.07;;;6.97;;
16954;SDS011;8594;52.052;8.354;2024-03-17T07:55:04;14.10;;;7.43;;
16954;SDS011;8594;52.052;8.354;2024-03-17T07:57:34;13.63;;;6.73;;
16954;SDS011;8594;52.052;8.354;2024-03-17T08:00:01;14.00;;;6.50;;
16954;SDS011;8594;52.052;8.354;2024-03-17T08:02:30;15.97;;;6.37;;
16954;SDS011;8594;52.052;8.354;2024-03-17T08:04:57;13.53;;;7.00;;
16954;SDS011;8594;52.052;8.354;2024-03-17T08:07:24;11.50;;;6.80;;
16954;SDS011;8594;52.052;8.354;2024-03-17T08:09:50;18.77;;;7.00;;
16954;SDS011;8594;52.052;8.354;2024-03-17T08:12:17;11.03;;;6.43;;
16954;SDS011;8594;52.052;8.354;2024-03-17T08:14:43;20.23;;;7.77;;
16954;SDS011;8594;52.052;8.354;2024-03-17T08:17:10;25.63;;;7.80;;
16954;SDS011;8594;52.052;8.354;2024-03-17T08:19:38;14.47;;;7.70;;
16954;SDS011;8594;52.052;8.354;2024-03-17T08:22:06;14.63;;;7.37;;
16954;SDS011;8594;52.052;8.354;2024-03-17T08:24:33;16.43;;;7.93;;
16954;SDS011;8594;52.052;8.354;2024-03-17T08:26:59;15.57;;;7.40;;
16954;SDS011;8594;52.052;8.354;2024-03-17T08:29:26;18.33;;;7.60;;
16954;SDS011;8594;52.052;8.354;2024-03-17T08:31:53;12.60;;;7.13;;
16954;SDS011;8594;52.052;8.354;2024-03-17T08:34:19;16.43;;;8.17;;
16954;SDS011;8594;52.052;8.354;2024-03-17T08:36:47;15.30;;;8.33;;
16954;SDS011;8594;52.052;8.354;2024-03-17T08:39:14;15.33;;;7.57;;
16954;SDS011;8594;52.052;8.354;2024-03-17T08:41:41;14.90;;;8.07;;
16954;SDS011;8594;52.052;8.354;2024-03-17T08:44:09;16.23;;;7.73;;
16954;SDS011;8594;52.052;8.354;2024-03-17T08:46:36;15.90;;;7.90;;
16954;SDS011;8594;52.052;8.354;2024-03-17T08:49:02;15.03;;;7.90;;
16954;SDS011;8594;52.052;8.354;2024-03-17T08:51:30;14.07;;;7.77;;
16954;SDS011;8594;52.052;8.354;2024-03-17T08:53:58;19.53;;;8.57;;
16954;SDS011;8594;52.052;8.354;2024-03-17T08:56:25;16.53;;;8.03;;
16954;SDS011;8594;52.052;8.354;2024-03-17T08:58:52;16.33;;;7.90;;
16954;SDS011;8594;52.052;8.354;2024-03-17T09:01:18;16.53;;;8.23;;
16954;SDS011;8594;52.052;8.354;2024-03-17T09:03:46;15.53;;;7.87;;
16954;SDS011;8594;52.052;8.354;2024-03-17T09:06:14;12.00;;;7.23;;
16954;SDS011;8594;52.052;8.354;2024-03-17T09:08:43;16.40;;;8.10;;
16954;SDS011;8594;52.052;8.354;2024-03-17T09:11:12;17.87;;;8.17;;
16954;SDS011;8594;52.052;8.354;2024-03-17T09:13:40;15.43;;;8.13;;
16954;SDS011;8594;52.052;8.354;2024-03-17T09:16:07;21.43;;;8.93;;
16954;SDS011;8594;52.052;8.354;2024-03-17T09:18:38;15.00;;;7.70;;
16954;SDS011;8594;52.052;8.354;2024-03-17T09:21:05;15.17;;;8.23;;
16954;SDS011;8594;52.052;8.354;2024-03-17T09:23:35;18.10;;;7.93;;
16954;SDS011;8594;52.052;8.354;2024-03-17T09:26:03;18.07;;;8.87;;
16954;SDS011;8594;52.052;8.354;2024-03-17T09:28:35;11.10;;;6.93;;
16954;SDS011;8594;52.052;8.354;2024-03-17T09:31:05;16.87;;;8.47;;
16954;SDS011;8594;52.052;8.354;2024-03-17T09:33:32;14.93;;;8.07;;
16954;SDS011;8594;52.052;8.354;2024-03-17T09:36:01;14.57;;;8.17;;
16954;SDS011;8594;52.052;8.354;2024-03-17T09:38:31;17.63;;;7.60;;
16954;SDS011;8594;52.052;8.354;2024-03-17T09:40:58;15.13;;;8.80;;
16954;SDS011;8594;52.052;8.354;2024-03-17T09:43:26;16.23;;;8.63;;
16954;SDS011;8594;52.052;8.354;2024-03-17T09:45:55;13.27;;;8.27;;
16954;SDS011;8594;52.052;8.354;2024-03-17T09:48:23;17.57;;;8.97;;
16954;SDS011;8594;52.052;8.354;2024-03-17T09:50:53;15.03;;;8.50;;
16954;SDS011;8594;52.052;8.354;2024-03-17T09:53:23;16.97;;;8.53;;
16954;SDS011;8594;52.052;8.354;2024-03-17T09:55:51;14.97;;;8.77;;
16954;SDS011;8594;52.052;8.354;2024-03-17T09:58:22;13.13;;;7.70;;
16954;SDS011;8594;52.052;8.354;2024-03-17T10:00:48;17.10;;;7.33;;
16954;SDS011;8594;52.052;8.354;2024-03-17T10:06:10;16.43;;;8.37;;
16954;SDS011;8594;52.052;8.354;2024-03-17T10:08:42;12.47;;;7.90;;
16954;SDS011;8594;52.052;8.354;2024-03-17T10:11:11;13.73;;;7.43;;
16954;SDS011;8594;52.052;8.354;2024-03-17T10:13:40;11.87;;;7.17;;
16954;SDS011;8594;52.052;8.354;2024-03-17T10:16:16;13.73;;;8.63;;
16954;SDS011;8594;52.052;8.354;2024-03-17T10:18:51;15.13;;;8.50;;
16954;SDS011;8594;52.052;8.354;2024-03-17T10:21:35;17.17;;;8.63;;
16954;SDS011;8594;52.052;8.354;2024-03-17T10:24:06;14.13;;;7.37;;
16954;SDS011;8594;52.052;8.354;2024-03-17T10:26:36;14.60;;;8.07;;
16954;SDS011;8594;52.052;8.354;2024-03-17T10:29:13;12.97;;;7.87;;
16954;SDS011;8594;52.052;8.354;2024-03-17T10:31:47;13.43;;;8.03;;
16954;SDS011;8594;52.052;8.354;2024-03-17T10:34:16;17.13;;;8.57;;
16954;SDS011;8594;52.052;8.354;2024-03-17T10:36:43;14.07;;;8.60;;
16954;SDS011;8594;52.052;8.354;2024-03-17T10:41:58;18.90;;;8.73;;
16954;SDS011;8594;52.052;8.354;2024-03-17T10:44:27;16.70;;;8.13;;
16954;SDS011;8594;52.052;8.354;2024-03-17T10:46:56;11.57;;;6.67;;
16954;SDS011;8594;52.052;8.354;2024-03-17T10:49:27;14.07;;;8.03;;
16954;SDS011;8594;52.052;8.354;2024-03-17T10:51:57;14.37;;;7.97;;
16954;SDS011;8594;52.052;8.354;2024-03-17T10:54:26;15.93;;;8.03;;
16954;SDS011;8594;52.052;8.354;2024-03-17T10:56:54;15.20;;;9.30;;
16954;SDS011;8594;52.052;8.354;2024-03-17T10:59:28;14.20;;;8.23;;
16954;SDS011;8594;52.052;8.354;2024-03-17T11:02:07;14.60;;;8.27;;
16954;SDS011;8594;52.052;8.354;2024-03-17T11:04:53;14.43;;;8.50;;
16954;SDS011;8594;52.052;8.354;2024-03-17T11:07:23;14.63;;;8.93;;
16954;SDS011;8594;52.052;8.354;2024-03-17T11:09:52;15.17;;;8.83;;
16954;SDS011;8594;52.052;8.354;2024-03-17T11:12:39;18.20;;;9.17;;
16954;SDS011;8594;52.052;8.354;2024-03-17T11:21:06;16.17;;;9.03;;
16954;SDS011;8594;52.052;8.354;2024-03-17T11:23:59;15.27;;;9.47;;
16954;SDS011;8594;52.052;8.354;2024-03-17T11:26:29;20.70;;;11.17;;
16954;SDS011;8594;52.052;8.354;2024-03-17T11:28:58;13.43;;;7.60;;
16954;SDS011;8594;52.052;8.354;2024-03-17T11:31:31;12.70;;;7.70;;
16954;SDS011;8594;52.052;8.354;2024-03-17T11:34:29;10.90;;;7.40;;
16954;SDS011;8594;52.052;8.354;2024-03-17T11:37:03;16.90;;;8.70;;
16954;SDS011;8594;52.052;8.354;2024-03-17T11:39:45;15.70;;;8.67;;
16954;SDS011;8594;52.052;8.354;2024-03-17T11:42:15;15.13;;;8.30;;
16954;SDS011;8594;52.052;8.354;2024-03-17T11:44:42;14.20;;;8.73;;
16954;SDS011;8594;52.052;8.354;2024-03-17T11:47:10;14.10;;;9.07;;
16954;SDS011;8594;52.052;8.354;2024-03-17T11:49:37;16.23;;;8.50;;
16954;SDS011;8594;52.052;8.354;2024-03-17T11:52:08;15.00;;;9.27;;
16954;SDS011;8594;52.052;8.354;2024-03-17T11:54:38;26.60;;;13.80;;
16954;SDS011;8594;52.052;8.354;2024-03-17T11:57:05;20.37;;;12.13;;
16954;SDS011;8594;52.052;8.354;2024-03-17T11:59:34;13.50;;;7.30;;
16954;SDS011;8594;52.052;8.354;2024-03-17T12:02:00;12.23;;;7.47;;
16954;SDS011;8594;52.052;8.354;2024-03-17T12:04:28;13.23;;;7.50;;
16954;SDS011;8594;52.052;8.354;2024-03-17T12:06:54;10.53;;;6.90;;
16954;SDS011;8594;52.052;8.354;2024-03-17T12:09:24;13.97;;;7.23;;
16954;SDS011;8594;52.052;8.354;2024-03-17T12:11:57;12.53;;;7.50;;
16954;SDS011;8594;52.052;8.354;2024-03-17T12:14:25;15.63;;;8.97;;
16954;SDS011;8594;52.052;8.354;2024-03-17T12:16:52;14.17;;;8.67;;
16954;SDS011;8594;52.052;8.354;2024-03-17T12:19:21;15.70;;;9.13;;
16954;SDS011;8594;52.052;8.354;2024-03-17T12:21:49;14.53;;;8.47;;
16954;SDS011;8594;52.052;8.354;2024-03-17T12:24:19;15.90;;;7.63;;
16954;SDS011;8594;52.052;8.354;2024-03-17T12:26:48;13.03;;;7.87;;
16954;SDS011;8594;52.052;8.354;2024-03-17T12:29:21;14.47;;;7.80;;
16954;SDS011;8594;52.052;8.354;2024-03-17T12:31:50;12.63;;;7.63;;
16954;SDS011;8594;52.052;8.354;2024-03-17T12:34:18;12.60;;;7.33;;
16954;SDS011;8594;52.052;8.354;2024-03-17T12:36:45;13.60;;;8.83;;
16954;SDS011;8594;52.052;8.354;2024-03-17T12:39:15;12.00;;;8.20;;
16954;SDS011;8594;52.052;8.354;2024-03-17T12:41:44;17.67;;;8.57;;
16954;SDS011;8594;52.052;8.354;2024-03-17T12:44:22;14.30;;;8.80;;
16954;SDS011;8594;52.052;8.354;2024-03-17T12:46:54;14.27;;;8.40;;
16954;SDS011;8594;52.052;8.354;2024-03-17T12:49:21;14.80;;;8.60;;
16954;SDS011;8594;52.052;8.354;2024-03-17T12:51:50;15.07;;;8.87;;
16954;SDS011;8594;52.052;8.354;2024-03-17T12:54:19;16.20;;;9.03;;
16954;SDS011;8594;52.052;8.354;2024-03-17T12:56:48;17.07;;;9.63;;
16954;SDS011;8594;52.052;8.354;2024-03-17T12:59:38;16.87;;;10.00;;
16954;SDS011;8594;52.052;8.354;2024-03-17T13:02:24;14.37;;;9.27;;
16954;SDS011;8594;52.052;8.354;2024-03-17T13:05:05;15.90;;;9.87;;
16954;SDS011;8594;52.052;8.354;2024-03-17T13:07:34;17.47;;;9.90;;
16954;SDS011;8594;52.052;8.354;2024-03-17T13:10:01;17.93;;;10.80;;
16954;SDS011;8594;52.052;8.354;2024-03-17T13:12:29;14.80;;;9.13;;
16954;SDS011;8594;52.052;8.354;2024-03-17T13:14:57;17.47;;;10.00;;
16954;SDS011;8594;52.052;8.354;2024-03-17T13:17:24;17.13;;;9.87;;
16954;SDS011;8594;52.052;8.354;2024-03-17T13:19:55;15.27;;;9.50;;
16954;SDS011;8594;52.052;8.354;2024-03-17T13:22:22;15.77;;;9.97;;
16954;SDS011;8594;52.052;8.354;2024-03-17T13:24:49;17.43;;;11.37;;
16954;SDS011;8594;52.052;8.354;2024-03-17T13:27:16;14.70;;;9.03;;
16954;SDS011;8594;52.052;8.354;2024-03-17T13:29:46;17.93;;;9.50;;
16954;SDS011;8594;52.052;8.354;2024-03-17T13:32:16;16.20;;;9.43;;
16954;SDS011;8594;52.052;8.354;2024-03-17T13:34:43;18.13;;;9.20;;
16954;SDS011;8594;52.052;8.354;2024-03-17T13:37:10;17.80;;;9.73;;
16954;SDS011;8594;52.052;8.354;2024-03-17T13:39:37;15.80;;;9.03;;
16954;SDS011;8594;52.052;8.354;2024-03-17T13:42:04;18.40;;;10.60;;
16954;SDS011;8594;52.052;8.354;2024-03-17T13:44:32;19.57;;;9.73;;
16954;SDS011;8594;52.052;8.354;2024-03-17T13:46:59;14.87;;;8.97;;
16954;SDS011;8594;52.052;8.354;2024-03-17T13:49:29;15.47;;;9.37;;
16954;SDS011;8594;52.052;8.354;2024-03-17T13:51:56;16.67;;;9.93;;
16954;SDS011;8594;52.052;8.354;2024-03-17T13:54:23;19.97;;;10.20;;
16954;SDS011;8594;52.052;8.354;2024-03-17T13:56:50;18.57;;;10.70;;
16954;SDS011;8594;52.052;8.354;2024-03-17T13:59:16;15.47;;;8.90;;
16954;SDS011;8594;52.052;8.354;2024-03-17T14:01:43;14.67;;;8.53;;
16954;SDS011;8594;52.052;8.354;2024-03-17T14:04:12;26.43;;;13.43;;
16954;SDS011;8594;52.052;8.354;2024-03-17T14:06:43;15.23;;;8.93;;
16954;SDS011;8594;52.052;8.354;2024-03-17T14:09:14;17.77;;;8.80;;
16954;SDS011;8594;52.052;8.354;2024-03-17T14:11:42;24.27;;;13.30;;
16954;SDS011;8594;52.052;8.354;2024-03-17T14:14:10;16.37;;;8.80;;
16954;SDS011;8594;52.052;8.354;2024-03-17T14:16:37;20.33;;;10.30;;
16954;SDS011;8594;52.052;8.354;2024-03-17T14:19:05;18.40;;;9.77;;
16954;SDS011;8594;52.052;8.354;2024-03-17T14:21:32;17.63;;;9.20;;
16954;SDS011;8594;52.052;8.354;2024-03-17T14:24:00;13.30;;;8.60;;
16954;SDS011;8594;52.052;8.354;2024-03-17T14:26:31;15.80;;;9.37;;
16954;SDS011;8594;52.052;8.354;2024-03-17T14:28:58;16.13;;;10.13;;
16954;SDS011;8594;52.052;8.354;2024-03-17T14:31:24;16.93;;;8.03;;
16954;SDS011;8594;52.052;8.354;2024-03-17T14:33:51;13.63;;;7.83;;
16954;SDS011;8594;52.052;8.354;2024-03-17T14:36:18;16.13;;;8.60;;
16954;SDS011;8594;52.052;8.354;2024-03-17T14:38:51;15.20;;;8.30;;
16954;SDS011;8594;52.052;8.354;2024-03-17T14:41:19;13.20;;;8.47;;
16954;SDS011;8594;52.052;8.354;2024-03-17T14:43:46;14.40;;;7.97;;
16954;SDS011;8594;52.052;8.354;2024-03-17T14:46:13;15.47;;;8.30;;
16954;SDS011;8594;52.052;8.354;2024-03-17T14:48:39;11.23;;;7.33;;
16954;SDS011;8594;52.052;8.354;2024-03-17T14:51:08;13.43;;;7.73;;
16954;SDS011;8594;52.052;8.354;2024-03-17T14:53:34;13.80;;;8.07;;
16954;SDS011;8594;52.052;8.354;2024-03-17T14:56:07;14.80;;;7.37;;
16954;SDS011;8594;52.052;8.354;2024-03-17T14:58:35;14.80;;;8.43;;
16954;SDS011;8594;52.052;8.354;2024-03-17T15:01:02;13.57;;;7.83;;
16954;SDS011;8594;52.052;8.354;2024-03-17T15:03:29;12.83;;;7.10;;
16954;SDS011;8594;52.052;8.354;2024-03-17T15:05:56;19.73;;;9.30;;
16954;SDS011;8594;52.052;8.354;2024-03-17T15:08:23;15.90;;;8.70;;
16954;SDS011;8594;52.052;8.354;2024-03-17T15:10:50;13.20;;;7.50;;